DAL3250 KLAX-PHNL
Flight info
| Callsign | DAL3250 |
|---|---|
| Flight time | 1h 54m |
| Altitude | 34000 |
| Route | SUMMR2 DINTY DUETS R576 DUSAC/N0481F360 R576 DENNS MAGGI3 |
| Aircraft | B77W/H-SDE1E2E3FGHIJ2J3J4J5M1RWXY/LB1D1 |
Departure
| Time | 2026-05-05 19:21 |
|---|---|
| Airport | Los Angeles International Airport (KLAX) |
Arrival
| Time | 2026-05-05 21:16 |
|---|---|
| Airport | Daniel K. Inouye International Airport (PHNL) |
| Time | Latitude | Longitude | Altitude | Speed | Heading |
|---|---|---|---|---|---|
| 2026-05-05 19:10 | 33.94545 | -118.40992 | 130 ft | 0 kts | 263° |
| 2026-05-05 19:14 | 33.94548 | -118.40968 | 129 ft | 4 kts | 267° |
| 2026-05-05 19:14 | 33.94548 | -118.40935 | 127 ft | 4 kts | 277° |
| 2026-05-05 19:14 | 33.94541 | -118.40905 | 125 ft | 4 kts | 301° |
| 2026-05-05 19:15 | 33.94526 | -118.40887 | 125 ft | 2 kts | 352° |
| 2026-05-05 19:15 | 33.94525 | -118.40887 | 125 ft | 0 kts | 353° |
| 2026-05-05 19:18 | 33.94560 | -118.40892 | 126 ft | 14 kts | 353° |
| 2026-05-05 19:18 | 33.94676 | -118.40909 | 128 ft | 17 kts | 353° |
| 2026-05-05 19:18 | 33.94789 | -118.40889 | 127 ft | 17 kts | 15° |
| 2026-05-05 19:19 | 33.94838 | -118.40828 | 128 ft | 10 kts | 71° |
| 2026-05-05 19:19 | 33.94854 | -118.40699 | 130 ft | 17 kts | 83° |
| 2026-05-05 19:19 | 33.94876 | -118.40486 | 125 ft | 34 kts | 83° |
| 2026-05-05 19:19 | 33.94905 | -118.40202 | 125 ft | 33 kts | 83° |
| 2026-05-05 19:20 | 33.94928 | -118.39985 | 130 ft | 13 kts | 78° |
| 2026-05-05 19:20 | 33.94990 | -118.39921 | 125 ft | 13 kts | 0° |
| 2026-05-05 19:20 | 33.95036 | -118.39971 | 126 ft | 7 kts | 277° |
| 2026-05-05 19:20 | 33.95030 | -118.40073 | 130 ft | 14 kts | 264° |
| 2026-05-05 19:21 | 33.95014 | -118.40228 | 127 ft | 31 kts | 262° |
| 2026-05-05 19:21 | 33.94953 | -118.40814 | 127 ft | 119 kts | 263° |
| 2026-05-05 19:21 | 33.94811 | -118.42192 | 193 ft | 206 kts | 262° |
| 2026-05-05 19:21 | 33.94638 | -118.44083 | 1021 ft | 244 kts | 263° |
| 2026-05-05 19:22 | 33.94448 | -118.46165 | 2543 ft | 250 kts | 262° |
| 2026-05-05 19:22 | 33.94249 | -118.48257 | 3484 ft | 253 kts | 267° |
| 2026-05-05 19:22 | 33.94185 | -118.50393 | 4332 ft | 257 kts | 270° |
| 2026-05-05 19:22 | 33.94127 | -118.52572 | 5089 ft | 263 kts | 266° |
| 2026-05-05 19:23 | 33.93954 | -118.54755 | 5861 ft | 269 kts | 265° |
| 2026-05-05 19:23 | 33.93763 | -118.57003 | 6629 ft | 274 kts | 265° |
| 2026-05-05 19:23 | 33.93574 | -118.59291 | 7450 ft | 275 kts | 267° |
| 2026-05-05 19:23 | 33.93389 | -118.61591 | 8329 ft | 277 kts | 266° |
| 2026-05-05 19:24 | 33.93204 | -118.63905 | 9286 ft | 278 kts | 267° |
| 2026-05-05 19:24 | 33.93020 | -118.66247 | 10148 ft | 281 kts | 267° |
| 2026-05-05 19:24 | 33.92838 | -118.68640 | 10633 ft | 296 kts | 267° |
| 2026-05-05 19:24 | 33.92644 | -118.71177 | 10797 ft | 321 kts | 266° |
| 2026-05-05 19:25 | 33.92429 | -118.73955 | 11017 ft | 345 kts | 266° |
| 2026-05-05 19:25 | 33.92197 | -118.76929 | 11353 ft | 364 kts | 266° |
| 2026-05-05 19:25 | 33.91955 | -118.80002 | 11953 ft | 373 kts | 266° |
| 2026-05-05 19:25 | 33.91710 | -118.83120 | 11970 ft | 373 kts | 267° |
| 2026-05-05 19:26 | 33.91653 | -118.86245 | 12338 ft | 375 kts | 273° |
| 2026-05-05 19:26 | 33.91795 | -118.89394 | 13245 ft | 376 kts | 275° |
| 2026-05-05 19:26 | 33.91949 | -118.92548 | 14128 ft | 380 kts | 274° |
| 2026-05-05 19:26 | 33.92069 | -118.95748 | 14889 ft | 384 kts | 273° |
| 2026-05-05 19:27 | 33.92168 | -118.98984 | 15618 ft | 387 kts | 274° |
| 2026-05-05 19:27 | 33.92560 | -119.02072 | 16133 ft | 392 kts | 290° |
| 2026-05-05 19:27 | 33.93835 | -119.04977 | 16788 ft | 392 kts | 304° |
| 2026-05-05 19:27 | 33.95343 | -119.07740 | 17463 ft | 398 kts | 303° |
| 2026-05-05 19:28 | 33.96837 | -119.10567 | 18231 ft | 401 kts | 302° |
| 2026-05-05 19:28 | 33.98320 | -119.13429 | 18918 ft | 404 kts | 302° |
| 2026-05-05 19:28 | 33.99809 | -119.16319 | 19586 ft | 408 kts | 302° |
| 2026-05-05 19:28 | 34.01460 | -119.19074 | 20113 ft | 410 kts | 315° |
| 2026-05-05 19:29 | 34.03663 | -119.21161 | 20573 ft | 410 kts | 327° |
| 2026-05-05 19:29 | 34.06081 | -119.23124 | 21127 ft | 416 kts | 326° |
| 2026-05-05 19:29 | 34.08436 | -119.25078 | 21817 ft | 417 kts | 326° |
| 2026-05-05 19:29 | 34.10811 | -119.27082 | 22608 ft | 416 kts | 326° |
| 2026-05-05 19:30 | 34.13182 | -119.29105 | 23273 ft | 419 kts | 326° |
| 2026-05-05 19:30 | 34.15568 | -119.31154 | 23813 ft | 423 kts | 326° |
| 2026-05-05 19:30 | 34.17974 | -119.33227 | 24257 ft | 427 kts | 326° |
| 2026-05-05 19:30 | 34.19581 | -119.34614 | 24572 ft | 430 kts | 326° |
| 2026-05-05 19:31 | 34.22857 | -119.37443 | 25150 ft | 436 kts | 327° |
| 2026-05-05 19:31 | 34.24494 | -119.38857 | 25428 ft | 438 kts | 327° |
| 2026-05-05 19:31 | 34.26987 | -119.41012 | 25880 ft | 441 kts | 327° |
| 2026-05-05 19:31 | 34.29498 | -119.43185 | 26348 ft | 444 kts | 327° |
| 2026-05-05 19:32 | 34.32021 | -119.45369 | 26798 ft | 447 kts | 327° |
| 2026-05-05 19:32 | 34.34555 | -119.47563 | 27206 ft | 451 kts | 327° |
| 2026-05-05 19:32 | 34.37062 | -119.49853 | 27528 ft | 454 kts | 320° |
| 2026-05-05 19:32 | 34.39073 | -119.52870 | 27731 ft | 470 kts | 302° |
| 2026-05-05 19:33 | 34.40308 | -119.56578 | 28120 ft | 481 kts | 289° |
| 2026-05-05 19:33 | 34.40789 | -119.60620 | 28548 ft | 492 kts | 273° |
| 2026-05-05 19:33 | 34.40559 | -119.64779 | 28814 ft | 498 kts | 269° |
| 2026-05-05 19:33 | 34.40206 | -119.68975 | 29033 ft | 504 kts | 268° |
| 2026-05-05 19:34 | 34.39830 | -119.73208 | 29357 ft | 507 kts | 268° |
| 2026-05-05 19:34 | 34.39471 | -119.77397 | 29811 ft | 506 kts | 269° |
| 2026-05-05 19:34 | 34.39131 | -119.81632 | 30277 ft | 505 kts | 269° |
| 2026-05-05 19:35 | 34.38507 | -119.90068 | 31132 ft | 500 kts | 270° |
| 2026-05-05 19:35 | 34.38208 | -119.94267 | 31559 ft | 499 kts | 269° |
| 2026-05-05 19:35 | 34.37912 | -119.98438 | 31976 ft | 497 kts | 269° |
| 2026-05-05 19:35 | 34.37625 | -120.02456 | 32377 ft | 495 kts | 269° |
| 2026-05-05 19:36 | 34.37325 | -120.06610 | 32799 ft | 494 kts | 269° |
| 2026-05-05 19:36 | 34.37026 | -120.10699 | 33177 ft | 492 kts | 268° |
| 2026-05-05 19:36 | 34.36723 | -120.14831 | 33463 ft | 493 kts | 269° |
| 2026-05-05 19:36 | 34.36418 | -120.18970 | 33727 ft | 494 kts | 269° |
| 2026-05-05 19:37 | 34.36110 | -120.23123 | 34001 ft | 495 kts | 268° |
| 2026-05-05 19:37 | 34.35487 | -120.31474 | 34073 ft | 497 kts | 268° |
| 2026-05-05 19:38 | 34.34862 | -120.39747 | 34054 ft | 491 kts | 268° |
| 2026-05-05 19:38 | 34.33976 | -120.47963 | 34068 ft | 499 kts | 255° |
| 2026-05-05 19:39 | 34.31049 | -120.55632 | 34090 ft | 505 kts | 246° |
| 2026-05-05 19:39 | 34.27852 | -120.63251 | 34098 ft | 510 kts | 246° |
| 2026-05-05 19:40 | 34.24723 | -120.70921 | 34094 ft | 513 kts | 247° |
| 2026-05-05 19:40 | 34.21628 | -120.78689 | 34091 ft | 513 kts | 247° |
| 2026-05-05 19:41 | 34.18525 | -120.86517 | 34102 ft | 521 kts | 247° |
| 2026-05-05 19:41 | 34.15357 | -120.94482 | 34101 ft | 530 kts | 247° |
| 2026-05-05 19:42 | 34.12195 | -121.02392 | 34083 ft | 534 kts | 247° |
| 2026-05-05 19:42 | 34.08948 | -121.10488 | 34099 ft | 537 kts | 247° |
| 2026-05-05 19:43 | 34.05723 | -121.18510 | 34087 ft | 531 kts | 247° |
| 2026-05-05 19:43 | 34.02510 | -121.26484 | 34078 ft | 527 kts | 246° |
| 2026-05-05 19:44 | 33.99303 | -121.34433 | 34102 ft | 527 kts | 246° |
| 2026-05-05 19:44 | 33.96090 | -121.42377 | 34106 ft | 528 kts | 246° |
| 2026-05-05 19:45 | 33.92866 | -121.50327 | 34104 ft | 529 kts | 246° |
| 2026-05-05 19:45 | 33.89634 | -121.58277 | 34100 ft | 528 kts | 246° |
| 2026-05-05 19:46 | 33.86416 | -121.66174 | 34109 ft | 528 kts | 246° |
| 2026-05-05 19:46 | 33.83175 | -121.74111 | 34115 ft | 528 kts | 246° |
| 2026-05-05 19:47 | 33.79927 | -121.82045 | 34094 ft | 528 kts | 246° |
| 2026-05-05 19:47 | 33.76683 | -121.89952 | 34102 ft | 527 kts | 246° |
| 2026-05-05 19:48 | 33.73437 | -121.97845 | 34123 ft | 526 kts | 246° |
| 2026-05-05 19:48 | 33.70269 | -122.05532 | 34120 ft | 525 kts | 246° |
| 2026-05-05 19:49 | 33.67024 | -122.13387 | 34109 ft | 524 kts | 246° |
| 2026-05-05 19:49 | 33.63791 | -122.21195 | 34117 ft | 521 kts | 246° |
| 2026-05-05 19:50 | 33.60572 | -122.28952 | 34111 ft | 517 kts | 246° |
| 2026-05-05 19:50 | 33.57385 | -122.36618 | 34088 ft | 515 kts | 246° |
| 2026-05-05 19:51 | 33.54185 | -122.44297 | 34124 ft | 514 kts | 246° |
| 2026-05-05 19:51 | 33.50974 | -122.51988 | 34133 ft | 516 kts | 246° |
| 2026-05-05 19:52 | 33.47848 | -122.59738 | 34125 ft | 515 kts | 253° |
| 2026-05-05 19:52 | 33.45970 | -122.67962 | 34137 ft | 512 kts | 260° |
| 2026-05-05 19:53 | 33.44454 | -122.76251 | 34119 ft | 513 kts | 260° |
| 2026-05-05 19:53 | 33.42853 | -122.84598 | 34128 ft | 515 kts | 259° |
| 2026-05-05 19:54 | 33.41145 | -122.92931 | 34122 ft | 515 kts | 258° |
| 2026-05-05 19:54 | 33.39428 | -123.01082 | 34133 ft | 514 kts | 258° |
| 2026-05-05 19:55 | 33.37674 | -123.09372 | 34138 ft | 513 kts | 258° |
| 2026-05-05 19:55 | 33.35926 | -123.17641 | 34116 ft | 512 kts | 258° |
| 2026-05-05 19:56 | 33.34182 | -123.25889 | 34123 ft | 512 kts | 258° |
| 2026-05-05 19:56 | 33.32426 | -123.34157 | 34143 ft | 513 kts | 258° |
| 2026-05-05 19:57 | 33.30671 | -123.42396 | 34142 ft | 515 kts | 258° |
| 2026-05-05 19:57 | 33.28889 | -123.50726 | 34146 ft | 517 kts | 258° |
| 2026-05-05 19:58 | 33.27100 | -123.59059 | 34145 ft | 518 kts | 258° |
| 2026-05-05 19:58 | 33.25302 | -123.67407 | 34144 ft | 518 kts | 258° |
| 2026-05-05 19:59 | 33.23500 | -123.75739 | 34139 ft | 517 kts | 258° |
| 2026-05-05 19:59 | 33.21707 | -123.84005 | 34144 ft | 517 kts | 258° |
| 2026-05-05 20:00 | 33.19897 | -123.92320 | 34149 ft | 516 kts | 258° |
| 2026-05-05 20:00 | 33.18118 | -124.00468 | 34147 ft | 515 kts | 257° |
| 2026-05-05 20:01 | 33.16301 | -124.08757 | 34153 ft | 515 kts | 257° |
| 2026-05-05 20:01 | 33.14493 | -124.16974 | 34151 ft | 515 kts | 257° |
| 2026-05-05 20:02 | 33.12670 | -124.25239 | 34146 ft | 514 kts | 257° |
| 2026-05-05 20:02 | 33.10846 | -124.33474 | 34151 ft | 513 kts | 257° |
| 2026-05-05 20:03 | 33.09020 | -124.41694 | 34151 ft | 512 kts | 257° |
| 2026-05-05 20:03 | 33.07190 | -124.49905 | 34142 ft | 512 kts | 257° |
| 2026-05-05 20:04 | 33.05357 | -124.58100 | 34155 ft | 511 kts | 257° |
| 2026-05-05 20:04 | 33.03531 | -124.66236 | 34157 ft | 511 kts | 257° |
| 2026-05-05 20:05 | 33.01690 | -124.74411 | 34143 ft | 510 kts | 256° |
| 2026-05-05 20:05 | 32.99848 | -124.82566 | 34155 ft | 509 kts | 256° |
| 2026-05-05 20:06 | 32.98001 | -124.90715 | 34158 ft | 509 kts | 256° |
| 2026-05-05 20:06 | 32.96162 | -124.98804 | 34157 ft | 509 kts | 256° |
| 2026-05-05 20:07 | 32.94338 | -125.06798 | 34168 ft | 507 kts | 256° |
| 2026-05-05 20:07 | 32.92486 | -125.14890 | 34159 ft | 506 kts | 256° |
| 2026-05-05 20:08 | 32.90631 | -125.22967 | 34163 ft | 505 kts | 256° |
| 2026-05-05 20:08 | 32.88776 | -125.31024 | 34172 ft | 503 kts | 256° |
| 2026-05-05 20:09 | 32.86923 | -125.39042 | 34169 ft | 502 kts | 256° |
| 2026-05-05 20:09 | 32.85068 | -125.47045 | 34152 ft | 501 kts | 256° |
| 2026-05-05 20:10 | 32.83223 | -125.54976 | 34168 ft | 500 kts | 256° |
| 2026-05-05 20:10 | 32.81357 | -125.62978 | 34167 ft | 499 kts | 256° |
| 2026-05-05 20:11 | 32.79513 | -125.70858 | 34163 ft | 498 kts | 256° |
| 2026-05-05 20:11 | 32.77640 | -125.78838 | 34165 ft | 497 kts | 256° |
| 2026-05-05 20:12 | 32.75777 | -125.86748 | 34168 ft | 497 kts | 256° |
| 2026-05-05 20:12 | 32.73923 | -125.94601 | 34175 ft | 497 kts | 256° |
| 2026-05-05 20:13 | 32.72080 | -126.02379 | 34176 ft | 497 kts | 256° |
| 2026-05-05 20:13 | 32.70200 | -126.10290 | 34177 ft | 498 kts | 256° |
| 2026-05-05 20:14 | 32.68315 | -126.18199 | 34171 ft | 498 kts | 256° |
| 2026-05-05 20:14 | 32.66423 | -126.26112 | 34168 ft | 498 kts | 256° |
| 2026-05-05 20:15 | 32.64542 | -126.33955 | 34171 ft | 497 kts | 256° |
| 2026-05-05 20:15 | 32.62642 | -126.41854 | 34174 ft | 496 kts | 256° |
| 2026-05-05 20:16 | 32.60746 | -126.49715 | 34175 ft | 496 kts | 256° |
| 2026-05-05 20:16 | 32.58845 | -126.57567 | 34179 ft | 494 kts | 256° |
| 2026-05-05 20:17 | 32.56946 | -126.65396 | 34176 ft | 493 kts | 256° |
| 2026-05-05 20:17 | 32.55042 | -126.73216 | 34176 ft | 493 kts | 256° |
| 2026-05-05 20:18 | 32.53460 | -126.79699 | 34176 ft | 492 kts | 256° |
| 2026-05-05 20:18 | 32.51555 | -126.87479 | 34179 ft | 491 kts | 256° |
| 2026-05-05 20:19 | 32.49649 | -126.95248 | 34181 ft | 490 kts | 256° |
| 2026-05-05 20:19 | 32.47774 | -127.02862 | 34181 ft | 490 kts | 256° |
| 2026-05-05 20:20 | 32.45865 | -127.10594 | 34179 ft | 489 kts | 256° |
| 2026-05-05 20:20 | 32.43957 | -127.18301 | 34181 ft | 488 kts | 256° |
| 2026-05-05 20:21 | 32.42057 | -127.25954 | 34175 ft | 487 kts | 256° |
| 2026-05-05 20:21 | 32.40141 | -127.33647 | 34185 ft | 486 kts | 256° |
| 2026-05-05 20:22 | 32.38222 | -127.41332 | 34185 ft | 486 kts | 256° |
| 2026-05-05 20:22 | 32.36298 | -127.49012 | 34180 ft | 486 kts | 256° |
| 2026-05-05 20:23 | 32.34387 | -127.56622 | 34188 ft | 485 kts | 256° |
| 2026-05-05 20:23 | 32.32465 | -127.64254 | 34189 ft | 484 kts | 256° |
| 2026-05-05 20:24 | 32.30538 | -127.71882 | 34183 ft | 483 kts | 256° |
| 2026-05-05 20:24 | 32.28612 | -127.79483 | 34194 ft | 482 kts | 256° |
| 2026-05-05 20:25 | 32.26698 | -127.87023 | 34195 ft | 481 kts | 256° |
| 2026-05-05 20:25 | 32.24766 | -127.94614 | 34179 ft | 484 kts | 256° |
| 2026-05-05 20:26 | 32.22848 | -128.02121 | 34199 ft | 486 kts | 256° |
| 2026-05-05 20:26 | 32.20885 | -128.09786 | 34202 ft | 489 kts | 256° |
| 2026-05-05 20:27 | 32.18909 | -128.17480 | 34198 ft | 490 kts | 256° |
| 2026-05-05 20:27 | 32.16936 | -128.25137 | 34191 ft | 489 kts | 256° |
| 2026-05-05 20:28 | 32.14951 | -128.32823 | 34191 ft | 487 kts | 256° |
| 2026-05-05 20:28 | 32.12973 | -128.40457 | 34194 ft | 485 kts | 256° |
| 2026-05-05 20:29 | 32.11000 | -128.48058 | 34197 ft | 484 kts | 256° |
| 2026-05-05 20:29 | 32.09027 | -128.55635 | 34198 ft | 483 kts | 256° |
| 2026-05-05 20:30 | 32.07050 | -128.63207 | 34202 ft | 483 kts | 256° |
| 2026-05-05 20:30 | 32.05081 | -128.70730 | 34200 ft | 482 kts | 256° |
| 2026-05-05 20:31 | 32.03098 | -128.78286 | 34199 ft | 482 kts | 256° |
| 2026-05-05 20:31 | 32.01110 | -128.85839 | 34200 ft | 482 kts | 256° |
| 2026-05-05 20:32 | 31.99124 | -128.93361 | 34199 ft | 480 kts | 257° |
| 2026-05-05 20:32 | 31.97170 | -129.00744 | 34201 ft | 479 kts | 257° |
| 2026-05-05 20:33 | 31.93668 | -129.13933 | 34185 ft | 477 kts | 257° |
| 2026-05-05 20:33 | 31.85695 | -129.43721 | 34203 ft | 474 kts | 257° |
| 2026-05-05 20:34 | 31.77770 | -129.73041 | 34221 ft | 470 kts | 258° |
| 2026-05-05 20:34 | 31.69919 | -130.01796 | 34237 ft | 479 kts | 258° |
| 2026-05-05 20:35 | 31.61672 | -130.31685 | 34191 ft | 481 kts | 258° |
| 2026-05-05 20:35 | 31.53460 | -130.61145 | 34185 ft | 469 kts | 257° |
| 2026-05-05 20:36 | 31.45230 | -130.90407 | 34253 ft | 479 kts | 257° |
| 2026-05-05 20:36 | 31.28723 | -131.48167 | 34188 ft | 485 kts | 257° |
| 2026-05-05 20:37 | 31.11839 | -132.06196 | 34151 ft | 468 kts | 258° |
| 2026-05-05 20:37 | 30.94748 | -132.63882 | 34275 ft | 477 kts | 257° |
| 2026-05-05 20:38 | 30.77240 | -133.21808 | 34256 ft | 487 kts | 256° |
| 2026-05-05 20:38 | 30.59009 | -133.81032 | 34221 ft | 483 kts | 255° |
| 2026-05-05 20:39 | 30.40947 | -134.38687 | 34283 ft | 482 kts | 255° |
| 2026-05-05 20:39 | 30.22458 | -134.96625 | 34273 ft | 482 kts | 254° |
| 2026-05-05 20:40 | 30.03835 | -135.54020 | 34269 ft | 483 kts | 253° |
| 2026-05-05 20:40 | 29.84994 | -136.11086 | 34282 ft | 485 kts | 252° |
| 2026-05-05 20:41 | 29.65496 | -136.69163 | 34291 ft | 486 kts | 251° |
| 2026-05-05 20:41 | 29.46147 | -137.25859 | 34281 ft | 488 kts | 251° |
| 2026-05-05 20:42 | 29.26004 | -137.83892 | 34296 ft | 489 kts | 250° |
| 2026-05-05 20:42 | 29.05891 | -138.40941 | 34278 ft | 490 kts | 249° |
| 2026-05-05 20:43 | 28.85331 | -138.98311 | 34270 ft | 490 kts | 249° |
| 2026-05-05 20:43 | 28.64691 | -139.55017 | 34257 ft | 492 kts | 248° |
| 2026-05-05 20:44 | 28.43804 | -140.11534 | 34286 ft | 493 kts | 248° |
| 2026-05-05 20:44 | 28.22340 | -140.68742 | 34277 ft | 492 kts | 248° |
| 2026-05-05 20:45 | 27.90307 | -141.52548 | 34264 ft | 491 kts | 248° |
| 2026-05-05 20:45 | 27.68664 | -142.08172 | 34260 ft | 491 kts | 248° |
| 2026-05-05 20:46 | 27.46454 | -142.64450 | 34256 ft | 491 kts | 248° |
| 2026-05-05 20:46 | 27.24459 | -143.19392 | 34249 ft | 490 kts | 247° |
| 2026-05-05 20:47 | 27.01846 | -143.75103 | 34246 ft | 489 kts | 247° |
| 2026-05-05 20:47 | 26.79602 | -144.29174 | 34244 ft | 487 kts | 246° |
| 2026-05-05 20:48 | 26.56719 | -144.84066 | 34232 ft | 486 kts | 246° |
| 2026-05-05 20:48 | 26.34066 | -145.37714 | 34234 ft | 486 kts | 246° |
| 2026-05-05 20:49 | 26.10849 | -145.91979 | 34225 ft | 483 kts | 246° |
| 2026-05-05 20:49 | 25.88060 | -146.44612 | 34193 ft | 480 kts | 246° |
| 2026-05-05 20:50 | 25.64871 | -146.97509 | 34200 ft | 478 kts | 246° |
| 2026-05-05 20:50 | 25.41876 | -147.49332 | 34176 ft | 476 kts | 245° |
| 2026-05-05 20:51 | 25.18642 | -148.01089 | 34176 ft | 474 kts | 245° |
| 2026-05-05 20:51 | 24.95239 | -148.52624 | 34158 ft | 472 kts | 245° |
| 2026-05-05 20:52 | 24.72132 | -149.02938 | 34175 ft | 472 kts | 245° |
| 2026-05-05 20:52 | 24.48269 | -149.54328 | 34160 ft | 472 kts | 245° |
| 2026-05-05 20:53 | 24.24721 | -150.04492 | 34140 ft | 471 kts | 244° |
| 2026-05-05 20:53 | 24.00561 | -150.55411 | 34141 ft | 471 kts | 244° |
| 2026-05-05 20:54 | 23.76657 | -151.05252 | 34143 ft | 472 kts | 244° |
| 2026-05-05 20:54 | 23.52053 | -151.56018 | 34149 ft | 473 kts | 244° |
| 2026-05-05 20:55 | 23.27707 | -152.05739 | 34171 ft | 474 kts | 243° |
| 2026-05-05 20:55 | 23.02623 | -152.56461 | 34117 ft | 477 kts | 243° |
| 2026-05-05 20:56 | 22.77695 | -153.06348 | 34143 ft | 477 kts | 243° |
| 2026-05-05 20:56 | 22.52223 | -153.56823 | 34136 ft | 477 kts | 243° |
| 2026-05-05 20:57 | 22.36703 | -154.08700 | 33981 ft | 448 kts | 272° |
| 2026-05-05 20:57 | 22.37297 | -154.33556 | 32169 ft | 368 kts | 270° |
| 2026-05-05 20:57 | 22.37650 | -154.53640 | 32449 ft | 319 kts | 270° |
| 2026-05-05 20:58 | 22.38006 | -154.74226 | 33523 ft | 372 kts | 270° |
| 2026-05-05 20:58 | 22.38401 | -154.98892 | 33534 ft | 446 kts | 270° |
| 2026-05-05 20:58 | 22.38784 | -155.25167 | 33045 ft | 452 kts | 270° |
| 2026-05-05 20:58 | 22.39132 | -155.52340 | 32913 ft | 450 kts | 270° |
| 2026-05-05 20:59 | 22.39379 | -155.74284 | 32989 ft | 446 kts | 270° |
| 2026-05-05 20:59 | 22.39448 | -155.80945 | 32992 ft | 446 kts | 270° |
| 2026-05-05 21:00 | 22.39515 | -155.87646 | 33004 ft | 446 kts | 270° |
| 2026-05-05 21:00 | 22.39579 | -155.94343 | 33006 ft | 446 kts | 270° |
| 2026-05-05 21:01 | 22.39640 | -156.00926 | 32990 ft | 446 kts | 270° |
| 2026-05-05 21:01 | 22.39699 | -156.07632 | 32991 ft | 446 kts | 270° |
| 2026-05-05 21:02 | 22.39755 | -156.14300 | 32989 ft | 446 kts | 270° |
| 2026-05-05 21:02 | 22.39511 | -156.21299 | 32982 ft | 445 kts | 258° |
| 2026-05-05 21:03 | 22.25410 | -156.43180 | 33171 ft | 449 kts | 231° |
| 2026-05-05 21:03 | 22.18840 | -156.51469 | 31673 ft | 443 kts | 233° |
| 2026-05-05 21:03 | 22.03725 | -156.71182 | 27737 ft | 411 kts | 232° |
| 2026-05-05 21:03 | 21.89488 | -156.89559 | 24109 ft | 390 kts | 232° |
| 2026-05-05 21:04 | 21.76221 | -157.06652 | 20411 ft | 378 kts | 232° |
| 2026-05-05 21:04 | 21.62923 | -157.23765 | 16705 ft | 369 kts | 231° |
| 2026-05-05 21:04 | 21.49847 | -157.40532 | 12984 ft | 363 kts | 230° |
| 2026-05-05 21:04 | 21.36953 | -157.56996 | 9817 ft | 346 kts | 230° |
| 2026-05-05 21:05 | 21.30693 | -157.64979 | 8636 ft | 321 kts | 230° |
| 2026-05-05 21:05 | 21.29276 | -157.66781 | 8535 ft | 310 kts | 230° |
| 2026-05-05 21:05 | 21.27906 | -157.68522 | 8331 ft | 302 kts | 230° |
| 2026-05-05 21:05 | 21.26670 | -157.70332 | 7735 ft | 302 kts | 244° |
| 2026-05-05 21:06 | 21.26098 | -157.71688 | 7298 ft | 301 kts | 243° |
| 2026-05-05 21:06 | 21.24517 | -157.74166 | 6469 ft | 310 kts | 231° |
| 2026-05-05 21:06 | 21.23125 | -157.75968 | 5791 ft | 318 kts | 230° |
| 2026-05-05 21:06 | 21.21680 | -157.77798 | 5122 ft | 325 kts | 230° |
| 2026-05-05 21:07 | 21.20193 | -157.79660 | 4446 ft | 332 kts | 229° |
| 2026-05-05 21:07 | 21.19199 | -157.80914 | 3983 ft | 331 kts | 232° |
| 2026-05-05 21:07 | 21.18024 | -157.83035 | 3295 ft | 334 kts | 245° |
| 2026-05-05 21:07 | 21.17116 | -157.85343 | 2644 ft | 338 kts | 248° |
| 2026-05-05 21:08 | 21.16278 | -157.87663 | 2414 ft | 328 kts | 249° |
| 2026-05-05 21:08 | 21.15478 | -157.89909 | 2212 ft | 318 kts | 249° |
| 2026-05-05 21:08 | 21.14707 | -157.92087 | 2029 ft | 306 kts | 250° |
| 2026-05-05 21:08 | 21.14272 | -157.94227 | 2004 ft | 285 kts | 265° |
| 2026-05-05 21:09 | 21.14180 | -157.96295 | 1991 ft | 271 kts | 268° |
| 2026-05-05 21:09 | 21.14149 | -157.98260 | 1982 ft | 256 kts | 269° |
| 2026-05-05 21:09 | 21.14128 | -158.00071 | 1994 ft | 242 kts | 269° |
| 2026-05-05 21:09 | 21.14111 | -158.01794 | 1985 ft | 226 kts | 269° |
| 2026-05-05 21:10 | 21.14097 | -158.03419 | 2013 ft | 209 kts | 269° |
| 2026-05-05 21:10 | 21.14085 | -158.04967 | 2057 ft | 208 kts | 269° |
| 2026-05-05 21:10 | 21.14073 | -158.06516 | 2021 ft | 207 kts | 270° |
| 2026-05-05 21:10 | 21.14399 | -158.07967 | 1993 ft | 202 kts | 306° |
| 2026-05-05 21:11 | 21.15577 | -158.08753 | 2025 ft | 208 kts | 351° |
| 2026-05-05 21:11 | 21.17035 | -158.08806 | 2039 ft | 213 kts | 358° |
| 2026-05-05 21:11 | 21.18513 | -158.08951 | 2026 ft | 212 kts | 351° |
| 2026-05-05 21:11 | 21.19940 | -158.09119 | 1987 ft | 201 kts | 7° |
| 2026-05-05 21:12 | 21.21123 | -158.08406 | 2020 ft | 201 kts | 54° |
| 2026-05-05 21:12 | 21.21532 | -158.07000 | 2030 ft | 197 kts | 84° |
| 2026-05-05 21:12 | 21.21989 | -158.05720 | 1985 ft | 182 kts | 44° |
| 2026-05-05 21:12 | 21.22878 | -158.04800 | 2026 ft | 176 kts | 48° |
| 2026-05-05 21:13 | 21.23655 | -158.03792 | 2044 ft | 177 kts | 51° |
| 2026-05-05 21:13 | 21.24424 | -158.02744 | 2037 ft | 181 kts | 52° |
| 2026-05-05 21:13 | 21.25192 | -158.01679 | 2022 ft | 180 kts | 52° |
| 2026-05-05 21:13 | 21.25956 | -158.00619 | 1994 ft | 180 kts | 52° |
| 2026-05-05 21:14 | 21.26730 | -157.99539 | 1722 ft | 183 kts | 52° |
| 2026-05-05 21:14 | 21.27496 | -157.98463 | 1448 ft | 179 kts | 52° |
| 2026-05-05 21:14 | 21.28244 | -157.97410 | 1236 ft | 177 kts | 53° |
| 2026-05-05 21:14 | 21.28991 | -157.96355 | 992 ft | 178 kts | 53° |
| 2026-05-05 21:15 | 21.29749 | -157.95285 | 745 ft | 181 kts | 53° |
| 2026-05-05 21:15 | 21.30507 | -157.94215 | 544 ft | 179 kts | 54° |
| 2026-05-05 21:15 | 21.31258 | -157.93173 | 225 ft | 170 kts | 55° |
| 2026-05-05 21:15 | 21.31933 | -157.92201 | 45 ft | 157 kts | 56° |
| 2026-05-05 21:16 | 21.32526 | -157.91358 | 29 ft | 108 kts | 53° |
| 2026-05-05 21:16 | 21.32757 | -157.91027 | 29 ft | 40 kts | 52° |
| 2026-05-05 21:16 | 21.32906 | -157.90817 | 29 ft | 21 kts | 52° |
| 2026-05-05 21:16 | 21.33019 | -157.90756 | 28 ft | 16 kts | 325° |
| 2026-05-05 21:17 | 21.33032 | -157.90870 | 29 ft | 16 kts | 254° |
| 2026-05-05 21:17 | 21.32970 | -157.90970 | 29 ft | 16 kts | 233° |
| 2026-05-05 21:17 | 21.32903 | -157.91065 | 29 ft | 16 kts | 233° |
| 2026-05-05 21:17 | 21.32836 | -157.91161 | 29 ft | 16 kts | 233° |
| 2026-05-05 21:18 | 21.32778 | -157.91262 | 29 ft | 16 kts | 259° |
| 2026-05-05 21:18 | 21.32775 | -157.91382 | 29 ft | 16 kts | 270° |
| 2026-05-05 21:18 | 21.32775 | -157.91501 | 29 ft | 16 kts | 270° |
| 2026-05-05 21:18 | 21.32106 | -157.91956 | 29 ft | 0 kts | 55° |
| 2026-05-05 21:19 | 21.32890 | -157.91571 | 29 ft | 0 kts | 360° |
| 2026-05-05 21:19 | 21.26784 | -157.99463 | 1804 ft | 183 kts | 52° |
| 2026-05-05 21:19 | 21.30332 | -157.94462 | 620 ft | 178 kts | 53° |
| 2026-05-05 21:19 | 21.31080 | -157.93421 | 302 ft | 173 kts | 56° |
| 2026-05-05 21:20 | 21.31754 | -157.92454 | 92 ft | 159 kts | 56° |
| 2026-05-05 21:20 | 21.32347 | -157.91607 | 29 ft | 137 kts | 52° |
| 2026-05-05 21:20 | 21.32699 | -157.91109 | 29 ft | 41 kts | 53° |
| 2026-05-05 21:20 | 21.25758 | -158.00893 | 2018 ft | 180 kts | 52° |
| 2026-05-05 21:21 | 21.26455 | -157.99924 | 1827 ft | 184 kts | 52° |